Saturday, July 21, 2018, 12:20 AM GMT
Back to Local

CYQA, Muskoka, Ont.

Location: , , Canada Lat: 44.967
Local Time: 12:20 AM GMT ( 0:20 GMT) Lon: -79.3
Time Zone: GMT Elev: 918 ft

Show me the last for .
Show Decoded

2018-07-21 00:00 METAR CYQA 210000Z AUTO 12008KT 9SM CLR 27/14 A2993 RMK SLP136 DENSITY ALT
                 2400FT =
2018-07-20 23:00 METAR CYQA 202300Z AUTO 12009G15KT 9SM CLR 28/14 A2993 RMK SLP137 DENSITY ALT
                 2500FT =
2018-07-20 22:00 METAR CYQA 202200Z AUTO 15011G17KT 9SM CLR 29/12 A2994 RMK SLP138 DENSITY ALT
                 2700FT =
2018-07-20 21:00 METAR CYQA 202100Z AUTO 13013G19KT 9SM FEW075 29/12 A2995 RMK SLP141 DENSITY ALT
                 2700FT =
2018-07-20 20:00 METAR CYQA 202000Z AUTO 15014KT 9SM FEW070 30/13 A2995 RMK SLP141 DENSITY ALT
                 2800FT =
2018-07-20 19:00 METAR CYQA 201900Z AUTO 13007G17KT 090V190 9SM SCT070 30/13 A2996 RMK SLP146
                 DENSITY ALT 2800FT =
2018-07-20 18:00 METAR CYQA 201800Z AUTO 13010G18KT 090V190 9SM CLR 30/13 A2997 RMK SLP148
                 DENSITY ALT 2700FT =
2018-07-20 17:00 METAR CYQA 201700Z AUTO 15011G19KT 110V180 9SM SCT060 29/14 A2999 RMK SLP156
                 DENSITY ALT 2600FT =
2018-07-20 16:00 METAR CYQA 201600Z AUTO 17013KT 120V200 9SM CLR 29/15 A3001 RMK SLP162 DENSITY
                 ALT 2600FT =
2018-07-20 15:45 METAR CYQA 201545Z AUTO 17015G20KT 9SM CLR 28/15 A3001 RMK SLP161 DENSITY ALT
                 2500FT =
2018-07-20 15:00 METAR CYQA 201500Z AUTO 13005KT 070V160 9SM CLR 27/15 A3002 RMK SLP165 DENSITY
                 ALT 2300FT =
2018-07-20 14:00 METAR CYQA 201400Z AUTO 15008KT 9SM CLR 25/14 A3003 RMK SLP169 DENSITY ALT
                 2100FT =
2018-07-20 13:00 METAR CYQA 201300Z AUTO 12005KT 090V150 9SM CLR 22/14 A3004 RMK SLP172 DENSITY
                 ALT 1700FT =
2018-07-20 12:00 METAR CYQA 201200Z AUTO 12005KT 9SM CLR 18/13 A3004 RMK SLP173 DENSITY ALT
                 1300FT =
2018-07-20 11:00 METAR CYQA 201100Z AUTO 12004KT 9SM CLR 15/13 A3003 RMK SLP171 =
2018-07-20 10:00 METAR CYQA 201000Z AUTO 11003KT 050V140 9SM CLR 11/11 A3003 RMK SLP172 =
2018-07-20 09:00 METAR CYQA 200900Z AUTO 00000KT 9SM CLR 11/11 A3004 RMK SLP175 =
2018-07-20 08:00 METAR CYQA 200800Z AUTO 13003KT 9SM CLR 11/10 A3005 RMK SLP177 =
2018-07-20 07:00 METAR CYQA 200700Z AUTO VRB02KT 9SM CLR 11/10 A3004 RMK SLP174 =
2018-07-20 06:00 METAR CYQA 200600Z AUTO 00000KT 9SM CLR 12/11 A3004 RMK SLP174 =
2018-07-20 05:00 METAR CYQA 200500Z AUTO 00000KT 9SM CLR 13/11 A3004 RMK SLP176 =
2018-07-20 04:00 METAR CYQA 200400Z AUTO 00000KT 9SM CLR 13/12 A3004 RMK SLP173 =
2018-07-20 03:00 METAR CYQA 200300Z AUTO 00000KT 9SM CLR 14/12 A3004 RMK SLP174 =
2018-07-20 02:00 METAR CYQA 200200Z AUTO VRB02KT 9SM CLR 16/12 A3004 RMK SLP175 DENSITY ALT
                 1000FT =
2018-07-20 01:00 METAR CYQA 200100Z AUTO 00000KT 9SM CLR 19/11 A3004 RMK SLP174 DENSITY ALT
                 1400FT =

Support USWX by starting your Amazon purchase here.